Time;durP1;ratioP1;P1;durP2;ratioP2;P2;SDS_P1;SDS_P2;PMS_P1;PMS_P2;Temp;Humidity;BMP_temperature;BMP_pressure;BME280_temperature;BME280_humidity;BME280_pressure;Samples;Min_cycle;Max_cycle;Signal;HPM_P1;HPM_P2
2022/03/12 00:00:30;;;;;;;0.13;0.13;;;;;;;;;;4960754;28;20043;-89
2022/03/12 00:02:56;;;;;;;0.20;0.20;;;;;;;;;;4961284;28;20030;-88
2022/03/12 00:05:23;;;;;;;0.15;0.15;;;;;;;;;;4977185;28;20486;-88
2022/03/12 00:07:51;;;;;;;0.17;0.17;;;;;;;;;;4992535;28;20486;-88
2022/03/12 00:10:18;;;;;;;0.10;0.10;;;;;;;;;;4960883;28;20474;-87
2022/03/12 00:12:44;;;;;;;0.20;0.20;;;;;;;;;;4976850;28;20168;-87
2022/03/12 00:15:11;;;;;;;0.10;0.10;;;;;;;;;;4976879;28;20103;-88
2022/03/12 00:17:39;;;;;;;0.10;0.10;;;;;;;;;;4960599;28;20035;-88
2022/03/12 00:20:09;;;;;;;0.15;0.15;;;;;;;;;;4992670;28;20093;-89
2022/03/12 00:22:37;;;;;;;0.20;0.20;;;;;;;;;;4960984;28;20545;-89
2022/03/12 00:25:06;;;;;;;0.20;0.20;;;;;;;;;;4976330;28;20046;-89
2022/03/12 00:27:32;;;;;;;0.13;0.13;;;;;;;;;;4961040;28;20074;-88
2022/03/12 00:30:00;;;;;;;0.10;0.10;;;;;;;;;;4976705;28;20397;-89
2022/03/12 00:32:27;;;;;;;0.20;0.20;;;;;;;;;;4960614;28;20070;-89
2022/03/12 00:34:53;;;;;;;0.15;0.10;;;;;;;;;;4960314;28;20048;-89
2022/03/12 00:37:19;;;;;;;0.10;0.10;;;;;;;;;;4960553;28;20046;-88
2022/03/12 00:39:47;;;;;;;0.10;0.10;;;;;;;;;;4959798;28;20042;-88
2022/03/12 00:42:13;;;;;;;1.45;0.52;;;;;;;;;;4960657;28;20042;-88
2022/03/12 00:44:40;;;;;;;0.15;0.15;;;;;;;;;;4992318;28;20051;-88
2022/03/12 00:47:06;;;;;;;0.20;0.20;;;;;;;;;;4976258;28;20077;-88
2022/03/12 00:49:31;;;;;;;0.17;0.17;;;;;;;;;;4959914;28;20050;-87
2022/03/12 00:51:57;;;;;;;0.10;0.10;;;;;;;;;;4976070;28;20046;-88
2022/03/12 00:54:24;;;;;;;0.10;0.10;;;;;;;;;;4960205;28;20053;-88
2022/03/12 00:56:50;;;;;;;0.10;0.10;;;;;;;;;;4976256;28;20050;-89
2022/03/12 00:59:16;;;;;;;0.10;0.10;;;;;;;;;;4992115;28;20050;-88
2022/03/12 01:01:42;;;;;;;0.10;0.10;;;;;;;;;;4976173;28;20046;-88
2022/03/12 01:04:08;;;;;;;0.28;0.25;;;;;;;;;;4960049;28;20126;-89
2022/03/12 01:06:37;;;;;;;0.10;0.10;;;;;;;;;;4960315;28;20065;-88
2022/03/12 01:09:03;;;;;;;0.10;0.10;;;;;;;;;;4982900;28;20042;-88
2022/03/12 01:11:30;;;;;;;0.10;0.10;;;;;;;;;;4982518;28;20046;-88
2022/03/12 01:13:56;;;;;;;0.17;0.17;;;;;;;;;;4998851;28;20045;-90
2022/03/12 01:16:22;;;;;;;0.20;0.20;;;;;;;;;;4982884;28;20046;-90
2022/03/12 01:18:48;;;;;;;0.10;0.10;;;;;;;;;;4998488;28;20058;-89
2022/03/12 01:21:19;;;;;;;0.10;0.10;;;;;;;;;;4982633;28;20042;-89
2022/03/12 01:23:46;;;;;;;0.10;0.10;;;;;;;;;;4967216;28;20041;-89
2022/03/12 01:26:12;;;;;;;0.10;0.10;;;;;;;;;;4983297;28;20034;-89
2022/03/12 01:28:38;;;;;;;0.30;0.30;;;;;;;;;;4982462;28;20500;-89
2022/03/12 01:31:04;;;;;;;0.28;0.28;;;;;;;;;;4982404;28;20101;-89
2022/03/12 01:33:30;;;;;;;0.15;0.15;;;;;;;;;;4966574;28;20042;-88
2022/03/12 01:35:57;;;;;;;1.00;1.00;;;;;;;;;;4966042;28;20069;-87
2022/03/12 01:38:28;;;;;;;0.25;0.25;;;;;;;;;;4982600;28;20398;-88
2022/03/12 01:40:54;;;;;;;0.10;0.10;;;;;;;;;;4982512;28;20120;-88
2022/03/12 01:43:21;;;;;;;0.10;0.10;;;;;;;;;;4982499;28;20030;-88
2022/03/12 01:45:47;;;;;;;0.73;0.73;;;;;;;;;;4965852;28;20474;-87
2022/03/12 01:48:13;;;;;;;0.10;0.10;;;;;;;;;;4965877;28;20065;-88
2022/03/12 01:50:40;;;;;;;0.10;0.10;;;;;;;;;;4982211;28;20054;-88
2022/03/12 01:53:07;;;;;;;0.20;0.20;;;;;;;;;;4998156;28;20086;-88
2022/03/12 01:55:35;;;;;;;0.20;0.20;;;;;;;;;;4982265;28;20050;-89
2022/03/12 01:58:02;;;;;;;0.30;0.30;;;;;;;;;;4982340;28;20046;-88
2022/03/12 02:00:29;;;;;;;0.20;0.20;;;;;;;;;;4966551;28;20096;-89
2022/03/12 02:02:56;;;;;;;0.52;0.13;;;;;;;;;;4965418;28;20042;-88
2022/03/12 02:05:27;;;;;;;0.15;0.13;;;;;;;;;;4981698;28;20125;-89
2022/03/12 02:07:53;;;;;;;0.10;0.10;;;;;;;;;;4966433;28;20034;-88
2022/03/12 02:10:20;;;;;;;0.10;0.10;;;;;;;;;;4981935;28;20038;-89
2022/03/12 02:12:46;;;;;;;0.10;0.10;;;;;;;;;;4966569;28;20038;-90
2022/03/12 02:15:12;;;;;;;0.10;0.10;;;;;;;;;;4982085;28;20458;-90
2022/03/12 02:17:38;;;;;;;0.28;0.22;;;;;;;;;;4982218;28;20052;-90
2022/03/12 02:20:05;;;;;;;0.20;0.20;;;;;;;;;;4978391;28;20101;-90
2022/03/12 02:22:31;;;;;;;0.22;0.22;;;;;;;;;;4979314;28;20042;-91
2022/03/12 02:24:57;;;;;;;0.10;0.10;;;;;;;;;;4979194;28;20038;-91
2022/03/12 02:27:25;;;;;;;0.10;0.10;;;;;;;;;;4979287;28;20077;-91
2022/03/12 02:29:57;;;;;;;0.25;0.20;;;;;;;;;;4979388;28;20494;-91
2022/03/12 02:32:22;;;;;;;0.10;0.10;;;;;;;;;;4963254;28;20046;-89
2022/03/12 02:34:49;;;;;;;0.15;0.15;;;;;;;;;;4978484;28;20069;-89
2022/03/12 02:37:33;;;;;;;0.20;0.20;;;;;;;;;;4994633;28;20375;-88
2022/03/12 02:40:05;;;;;;;0.10;0.10;;;;;;;;;;4980754;28;20058;-88
2022/03/12 02:42:31;;;;;;;0.13;0.13;;;;;;;;;;4994365;28;20058;-88
2022/03/12 02:44:59;;;;;;;0.10;0.10;;;;;;;;;;4978289;28;20045;-88
2022/03/12 02:47:33;;;;;;;0.57;0.57;;;;;;;;;;4978723;28;20046;-89
2022/03/12 02:50:02;;;;;;;0.20;0.20;;;;;;;;;;4978488;28;20062;-90
2022/03/12 02:52:28;;;;;;;0.10;0.10;;;;;;;;;;4978098;28;20125;-90
2022/03/12 02:54:58;;;;;;;0.10;0.10;;;;;;;;;;4962221;28;20465;-90
2022/03/12 02:57:26;;;;;;;0.10;0.10;;;;;;;;;;4978213;28;20050;-88
2022/03/12 02:59:53;;;;;;;0.10;0.10;;;;;;;;;;4962626;28;20065;-89
2022/03/12 03:02:25;;;;;;;0.10;0.10;;;;;;;;;;4978081;28;20133;-89
2022/03/12 03:04:51;;;;;;;0.10;0.10;;;;;;;;;;4994346;28;20478;-89
2022/03/12 03:07:17;;;;;;;0.10;0.10;;;;;;;;;;4978125;28;20053;-89
2022/03/12 03:09:43;;;;;;;0.30;0.20;;;;;;;;;;4977851;28;20034;-89
2022/03/12 03:12:10;;;;;;;0.13;0.13;;;;;;;;;;4977970;28;20049;-89
2022/03/12 03:14:41;;;;;;;0.28;0.28;;;;;;;;;;4978508;28;20054;-90
2022/03/12 03:17:12;;;;;;;0.20;0.20;;;;;;;;;;4978552;28;20117;-90
2022/03/12 03:19:38;;;;;;;0.13;0.13;;;;;;;;;;4978673;28;20046;-90
2022/03/12 03:22:04;;;;;;;0.10;0.10;;;;;;;;;;4978415;28;20101;-90
2022/03/12 03:24:30;;;;;;;0.10;0.10;;;;;;;;;;4979719;28;20461;-91
2022/03/12 03:26:57;;;;;;;0.93;0.15;;;;;;;;;;4996142;28;20042;-91
2022/03/12 03:29:24;;;;;;;0.30;0.30;;;;;;;;;;4962780;28;20042;-87
2022/03/12 03:31:50;;;;;;;0.10;0.10;;;;;;;;;;4977757;28;20129;-89
2022/03/12 03:34:16;;;;;;;0.10;0.10;;;;;;;;;;4994043;28;20092;-89
2022/03/12 03:36:42;;;;;;;0.10;0.10;;;;;;;;;;4978823;28;20081;-90
2022/03/12 03:39:08;;;;;;;0.10;0.10;;;;;;;;;;4977881;28;20077;-88
2022/03/12 03:41:34;;;;;;;0.38;0.38;;;;;;;;;;4961387;28;20038;-90
2022/03/12 03:44:00;;;;;;;0.10;0.10;;;;;;;;;;4961559;28;20039;-90
2022/03/12 03:46:26;;;;;;;1.45;1.35;;;;;;;;;;4961283;28;20069;-91
2022/03/12 03:48:52;;;;;;;0.10;0.10;;;;;;;;;;4977573;28;20483;-90
2022/03/12 03:51:19;;;;;;;0.30;0.30;;;;;;;;;;4961406;28;20057;-90
2022/03/12 03:53:45;;;;;;;0.20;0.20;;;;;;;;;;4961412;28;20143;-90
2022/03/12 03:56:11;;;;;;;0.22;0.20;;;;;;;;;;4993238;28;20042;-90
2022/03/12 03:58:37;;;;;;;1.17;1.10;;;;;;;;;;4977179;28;20045;-89
2022/03/12 04:01:12;;;;;;;0.30;0.30;;;;;;;;;;4993148;28;20390;-90
2022/03/12 04:03:39;;;;;;;0.10;0.10;;;;;;;;;;4978053;28;20133;-90
2022/03/12 04:06:05;;;;;;;1.00;0.40;;;;;;;;;;4976903;28;20038;-89
2022/03/12 04:08:31;;;;;;;0.30;0.30;;;;;;;;;;4960896;28;20096;-89
2022/03/12 04:10:58;;;;;;;0.75;0.32;;;;;;;;;;4977096;28;20046;-89
2022/03/12 04:13:24;;;;;;;0.10;0.10;;;;;;;;;;4992978;28;20077;-90
2022/03/12 04:15:50;;;;;;;0.15;0.15;;;;;;;;;;4960723;28;20053;-89
2022/03/12 04:18:17;;;;;;;0.10;0.10;;;;;;;;;;4960980;28;20042;-90
2022/03/12 04:20:47;;;;;;;0.30;0.30;;;;;;;;;;4960554;28;20129;-90
2022/03/12 04:23:18;;;;;;;0.10;0.10;;;;;;;;;;4961275;28;20041;-89
2022/03/12 04:25:45;;;;;;;0.08;0.08;;;;;;;;;;4976997;28;20038;-89
2022/03/12 04:28:11;;;;;;;0.20;0.20;;;;;;;;;;4976505;28;20047;-91
2022/03/12 04:30:38;;;;;;;0.22;0.20;;;;;;;;;;4960578;28;20153;-89
2022/03/12 04:33:04;;;;;;;0.10;0.10;;;;;;;;;;4992554;28;20104;-89
2022/03/12 04:35:31;;;;;;;0.15;0.15;;;;;;;;;;4960221;28;20476;-91
2022/03/12 04:37:57;;;;;;;0.20;0.20;;;;;;;;;;4960776;28;20086;-89
2022/03/12 04:40:24;;;;;;;0.10;0.10;;;;;;;;;;4976422;28;20053;-90
2022/03/12 04:42:50;;;;;;;0.10;0.10;;;;;;;;;;4959824;28;20038;-90
2022/03/12 04:45:17;;;;;;;0.25;0.22;;;;;;;;;;4976954;28;20152;-91
2022/03/12 04:47:44;;;;;;;0.38;0.10;;;;;;;;;;4960572;28;20042;-90
2022/03/12 04:50:12;;;;;;;0.10;0.10;;;;;;;;;;4992633;28;20072;-91
2022/03/12 04:52:39;;;;;;;0.10;0.10;;;;;;;;;;4960668;28;20050;-90
2022/03/12 04:55:10;;;;;;;0.20;0.20;;;;;;;;;;4976248;28;20042;-90
2022/03/12 04:57:36;;;;;;;0.15;0.15;;;;;;;;;;4976879;28;20057;-90
2022/03/12 05:00:25;;;;;;;0.52;0.30;;;;;;;;;;4992393;28;20489;-90
2022/03/12 05:02:52;;;;;;;0.22;0.22;;;;;;;;;;4960453;28;20125;-90
2022/03/12 05:05:18;;;;;;;0.10;0.10;;;;;;;;;;4959787;28;20097;-89
2022/03/12 05:07:44;;;;;;;0.10;0.10;;;;;;;;;;4960050;28;20073;-88
2022/03/12 05:10:11;;;;;;;0.20;0.17;;;;;;;;;;4976069;28;20046;-88
2022/03/12 05:12:39;;;;;;;0.10;0.10;;;;;;;;;;4976124;28;20042;-89
2022/03/12 05:15:06;;;;;;;0.70;0.15;;;;;;;;;;4991512;28;20093;-88
2022/03/12 05:17:38;;;;;;;0.10;0.10;;;;;;;;;;4959561;28;20422;-88
2022/03/12 05:20:05;;;;;;;0.10;0.10;;;;;;;;;;4960652;28;20502;-88
2022/03/12 05:22:31;;;;;;;0.20;0.20;;;;;;;;;;4975973;28;20129;-89
2022/03/12 05:24:56;;;;;;;0.10;0.10;;;;;;;;;;4975814;28;20109;-88
2022/03/12 05:27:22;;;;;;;0.10;0.10;;;;;;;;;;4975631;28;20034;-88
2022/03/12 05:29:51;;;;;;;0.10;0.10;;;;;;;;;;4975643;28;20410;-89
2022/03/12 05:32:17;;;;;;;0.00;0.00;;;;;;;;;;4976294;28;20053;-92
2022/03/12 05:34:43;;;;;;;0.10;0.10;;;;;;;;;;4961226;28;20042;-96
2022/03/12 05:37:09;;;;;;;0.55;0.22;;;;;;;;;;4960031;28;20082;-90
2022/03/12 05:39:36;;;;;;;0.25;0.25;;;;;;;;;;4992140;28;20072;-90
2022/03/12 05:42:05;;;;;;;0.10;0.10;;;;;;;;;;4976205;28;20410;-90
2022/03/12 05:44:32;;;;;;;0.30;0.30;;;;;;;;;;4976536;28;20050;-91
2022/03/12 05:46:58;;;;;;;0.10;0.10;;;;;;;;;;4975813;28;20046;-89
2022/03/12 05:49:25;;;;;;;0.10;0.10;;;;;;;;;;4975480;28;20055;-89
2022/03/12 05:51:51;;;;;;;0.10;0.10;;;;;;;;;;4991731;28;20042;-89
2022/03/12 05:54:17;;;;;;;0.10;0.10;;;;;;;;;;4994116;28;20521;-89
2022/03/12 05:56:43;;;;;;;0.10;0.10;;;;;;;;;;4979448;28;20042;-89
2022/03/12 05:59:09;;;;;;;0.10;0.10;;;;;;;;;;4978965;28;20406;-90
2022/03/12 06:01:35;;;;;;;0.10;0.10;;;;;;;;;;4995266;28;20038;-89
2022/03/12 06:04:01;;;;;;;0.10;0.10;;;;;;;;;;4962971;28;20121;-90
2022/03/12 06:06:32;;;;;;;0.32;0.20;;;;;;;;;;4979276;28;20046;-89
2022/03/12 06:08:58;;;;;;;0.40;0.20;;;;;;;;;;4979939;28;20050;-90
2022/03/12 06:11:30;;;;;;;0.10;0.10;;;;;;;;;;4962942;28;20042;-89
2022/03/12 06:14:00;;;;;;;0.10;0.10;;;;;;;;;;4979049;28;20478;-89
2022/03/12 06:16:26;;;;;;;0.17;0.17;;;;;;;;;;4979338;28;20405;-89
2022/03/12 06:18:53;;;;;;;0.10;0.10;;;;;;;;;;4963392;28;20198;-90
2022/03/12 06:21:19;;;;;;;0.73;0.73;;;;;;;;;;4962995;28;20049;-90
2022/03/12 06:23:45;;;;;;;0.10;0.10;;;;;;;;;;4995059;28;20034;-91
2022/03/12 06:26:16;;;;;;;0.10;0.10;;;;;;;;;;4979545;28;20038;-91
2022/03/12 06:28:43;;;;;;;0.10;0.10;;;;;;;;;;4979868;28;20084;-91
2022/03/12 06:31:10;;;;;;;0.10;0.10;;;;;;;;;;4979102;28;20050;-92
2022/03/12 06:33:36;;;;;;;0.20;0.20;;;;;;;;;;4963238;28;20041;-90
2022/03/12 06:36:03;;;;;;;0.20;0.20;;;;;;;;;;4963275;28;20042;-91
2022/03/12 06:38:29;;;;;;;0.32;0.15;;;;;;;;;;4995350;28;20057;-91
2022/03/12 06:40:58;;;;;;;0.10;0.10;;;;;;;;;;4962704;28;20042;-91
2022/03/12 06:43:26;;;;;;;0.10;0.10;;;;;;;;;;4978230;28;20038;-90
2022/03/12 06:45:53;;;;;;;0.20;0.20;;;;;;;;;;4962600;28;20042;-90
2022/03/12 06:48:20;;;;;;;0.10;0.10;;;;;;;;;;4978720;28;20148;-90
2022/03/12 06:50:46;;;;;;;0.32;0.32;;;;;;;;;;4962343;28;20046;-90
2022/03/12 06:53:13;;;;;;;0.10;0.10;;;;;;;;;;4962539;28;20557;-91
2022/03/12 06:55:39;;;;;;;0.20;0.20;;;;;;;;;;4978665;28;20052;-90
2022/03/12 06:58:05;;;;;;;0.20;0.20;;;;;;;;;;4962246;28;20101;-90
2022/03/12 07:00:31;;;;;;;0.10;0.10;;;;;;;;;;4978360;28;20050;-91
2022/03/12 07:02:57;;;;;;;0.10;0.10;;;;;;;;;;4994573;28;20058;-91
2022/03/12 07:05:23;;;;;;;0.10;0.10;;;;;;;;;;4961701;28;20076;-90
2022/03/12 07:07:50;;;;;;;0.30;0.30;;;;;;;;;;4962517;28;20371;-90
2022/03/12 07:10:16;;;;;;;0.10;0.10;;;;;;;;;;4962055;28;20097;-90
2022/03/12 07:12:44;;;;;;;0.10;0.10;;;;;;;;;;4977874;28;20046;-90
2022/03/12 07:15:11;;;;;;;0.10;0.10;;;;;;;;;;4961939;28;20450;-90
2022/03/12 07:17:37;;;;;;;0.10;0.10;;;;;;;;;;4963783;28;20137;-96
2022/03/12 07:20:03;;;;;;;0.10;0.10;;;;;;;;;;4966133;28;20069;-91
2022/03/12 07:22:29;;;;;;;0.10;0.10;;;;;;;;;;4978368;28;20050;-93
2022/03/12 07:24:55;;;;;;;0.10;0.10;;;;;;;;;;4961405;28;20081;-90
2022/03/12 07:27:22;;;;;;;0.10;0.10;;;;;;;;;;4961702;28;20054;-90
2022/03/12 07:29:48;;;;;;;0.20;0.20;;;;;;;;;;4962028;28;20419;-90
2022/03/12 07:32:15;;;;;;;0.22;0.22;;;;;;;;;;4977815;28;20136;-91
2022/03/12 07:34:41;;;;;;;0.10;0.10;;;;;;;;;;4977778;28;20057;-90
2022/03/12 07:37:09;;;;;;;0.17;0.17;;;;;;;;;;4978163;28;20038;-90
2022/03/12 07:39:35;;;;;;;0.20;0.20;;;;;;;;;;4962165;28;20042;-89
2022/03/12 07:42:03;;;;;;;0.10;0.10;;;;;;;;;;4977581;28;20214;-90
2022/03/12 07:44:29;;;;;;;0.10;0.10;;;;;;;;;;4961073;28;20054;-90
2022/03/12 07:46:55;;;;;;;1.55;0.20;;;;;;;;;;4993478;28;20125;-91
2022/03/12 07:49:21;;;;;;;0.10;0.10;;;;;;;;;;4977141;28;20082;-90
2022/03/12 07:51:47;;;;;;;0.10;0.10;;;;;;;;;;4977581;28;20050;-90
2022/03/12 07:54:15;;;;;;;0.10;0.10;;;;;;;;;;4961249;28;20183;-90
2022/03/12 07:56:42;;;;;;;0.22;0.22;;;;;;;;;;4993364;28;20057;-88
2022/03/12 07:59:08;;;;;;;0.10;0.10;;;;;;;;;;4961658;28;20496;-88
2022/03/12 08:01:34;;;;;;;0.10;0.10;;;;;;;;;;4960954;28;20034;-89
2022/03/12 08:04:01;;;;;;;0.30;0.20;;;;;;;;;;4977497;28;20041;-88
2022/03/12 08:06:27;;;;;;;0.20;0.20;;;;;;;;;;4960662;28;20061;-89
2022/03/12 08:08:53;;;;;;;0.50;0.50;;;;;;;;;;4976957;28;20045;-88
2022/03/12 08:11:25;;;;;;;0.10;0.10;;;;;;;;;;4977243;28;20042;-89
2022/03/12 08:14:02;;;;;;;0.10;0.10;;;;;;;;;;4994249;28;20111;-90
2022/03/12 08:16:33;;;;;;;0.40;0.40;;;;;;;;;;4978120;28;20054;-93
2022/03/12 08:19:00;;;;;;;0.17;0.17;;;;;;;;;;4977276;28;20442;-92
2022/03/12 08:21:26;;;;;;;0.10;0.10;;;;;;;;;;4977577;28;20042;-92
2022/03/12 08:23:52;;;;;;;0.20;0.20;;;;;;;;;;4961629;28;20500;-90
2022/03/12 08:26:21;;;;;;;0.10;0.10;;;;;;;;;;4977293;28;20049;-89
2022/03/12 08:28:47;;;;;;;0.10;0.10;;;;;;;;;;4961772;28;20049;-90
2022/03/12 08:31:13;;;;;;;0.20;0.20;;;;;;;;;;4961168;28;20041;-91
2022/03/12 08:33:39;;;;;;;0.10;0.10;;;;;;;;;;4977533;28;20046;-90
2022/03/12 08:36:06;;;;;;;0.20;0.20;;;;;;;;;;4977367;28;20103;-91
2022/03/12 08:38:34;;;;;;;0.10;0.10;;;;;;;;;;4961170;28;20138;-90
2022/03/12 08:41:00;;;;;;;0.20;0.20;;;;;;;;;;4961128;28;20509;-90
2022/03/12 08:43:26;;;;;;;0.10;0.10;;;;;;;;;;4992924;28;20038;-89
2022/03/12 08:45:52;;;;;;;0.30;0.20;;;;;;;;;;4976697;28;20038;-89
2022/03/12 08:48:18;;;;;;;0.10;0.10;;;;;;;;;;4976799;28;20137;-88
2022/03/12 08:50:44;;;;;;;0.10;0.10;;;;;;;;;;4976267;28;20057;-89
2022/03/12 08:53:11;;;;;;;0.20;0.20;;;;;;;;;;4959953;28;20061;-89
2022/03/12 08:55:38;;;;;;;0.20;0.20;;;;;;;;;;4976531;28;20040;-88
2022/03/12 08:58:03;;;;;;;0.80;0.20;;;;;;;;;;4960569;28;20114;-89
2022/03/12 09:00:31;;;;;;;0.22;0.22;;;;;;;;;;4976478;28;20041;-89
2022/03/12 09:02:57;;;;;;;0.65;0.65;;;;;;;;;;4960331;28;20042;-89
2022/03/12 09:05:23;;;;;;;0.10;0.10;;;;;;;;;;4960257;28;20044;-89
2022/03/12 09:07:51;;;;;;;0.20;0.20;;;;;;;;;;4992377;28;20039;-88
2022/03/12 09:10:18;;;;;;;0.10;0.10;;;;;;;;;;4960464;28;20034;-87
2022/03/12 09:12:44;;;;;;;0.10;0.10;;;;;;;;;;4976741;28;20508;-89
2022/03/12 09:15:10;;;;;;;0.20;0.20;;;;;;;;;;4976332;28;20125;-88
2022/03/12 09:17:36;;;;;;;0.10;0.10;;;;;;;;;;4975741;28;20117;-88
2022/03/12 09:20:04;;;;;;;0.10;0.10;;;;;;;;;;4959393;28;20069;-87
2022/03/12 09:22:30;;;;;;;0.20;0.20;;;;;;;;;;4991792;28;20086;-89
2022/03/12 09:24:56;;;;;;;0.10;0.10;;;;;;;;;;4960111;28;20049;-92
2022/03/12 09:27:22;;;;;;;0.10;0.10;;;;;;;;;;4960671;28;20533;-91
2022/03/12 09:29:48;;;;;;;0.10;0.10;;;;;;;;;;4963662;28;20045;-91
2022/03/12 09:32:14;;;;;;;0.10;0.10;;;;;;;;;;4964006;28;20046;-87
2022/03/12 09:34:40;;;;;;;0.10;0.10;;;;;;;;;;4979300;28;20574;-87
2022/03/12 09:37:07;;;;;;;0.20;0.20;;;;;;;;;;4979375;28;20049;-89
2022/03/12 09:39:34;;;;;;;0.10;0.10;;;;;;;;;;4980572;28;20050;-89
2022/03/12 09:42:00;;;;;;;0.10;0.10;;;;;;;;;;4980452;28;20553;-91
2022/03/12 09:44:26;;;;;;;0.10;0.10;;;;;;;;;;4963775;28;20042;-89
2022/03/12 09:46:52;;;;;;;0.20;0.20;;;;;;;;;;4979888;28;20042;-88
2022/03/12 09:49:18;;;;;;;0.20;0.20;;;;;;;;;;4979370;28;20052;-89
2022/03/12 09:51:44;;;;;;;0.10;0.10;;;;;;;;;;4979245;28;20050;-89
2022/03/12 09:54:13;;;;;;;0.10;0.10;;;;;;;;;;4979441;28;20050;-88
2022/03/12 09:56:39;;;;;;;0.10;0.10;;;;;;;;;;4979500;28;20049;-89
2022/03/12 09:59:05;;;;;;;0.17;0.17;;;;;;;;;;4995234;28;20050;-87
2022/03/12 10:01:32;;;;;;;0.17;0.17;;;;;;;;;;4993530;28;20133;-88
2022/03/12 10:03:58;;;;;;;0.15;0.15;;;;;;;;;;4979047;28;20436;-88
2022/03/12 10:06:24;;;;;;;0.20;0.20;;;;;;;;;;4995206;28;20093;-88
2022/03/12 10:08:52;;;;;;;0.17;0.17;;;;;;;;;;4993586;28;20049;-88
2022/03/12 10:11:18;;;;;;;0.10;0.10;;;;;;;;;;4963212;28;20057;-89
2022/03/12 10:13:44;;;;;;;0.10;0.10;;;;;;;;;;4962665;28;20045;-89
2022/03/12 10:16:11;;;;;;;0.10;0.10;;;;;;;;;;4978306;28;20110;-88
2022/03/12 10:18:37;;;;;;;0.10;0.10;;;;;;;;;;4978633;28;20038;-89
2022/03/12 10:21:03;;;;;;;0.10;0.10;;;;;;;;;;4978976;28;20049;-89
2022/03/12 10:23:29;;;;;;;0.10;0.10;;;;;;;;;;4994853;28;20035;-89
2022/03/12 10:25:55;;;;;;;0.10;0.10;;;;;;;;;;4978769;28;20312;-88
2022/03/12 10:28:21;;;;;;;0.10;0.10;;;;;;;;;;4978753;28;20109;-90
2022/03/12 10:30:47;;;;;;;0.10;0.10;;;;;;;;;;4979361;28;20573;-88
2022/03/12 10:33:23;;;;;;;0.10;0.10;;;;;;;;;;4978889;28;20489;-89
2022/03/12 10:35:49;;;;;;;0.13;0.13;;;;;;;;;;4994859;28;20077;-89
2022/03/12 10:38:15;;;;;;;0.47;0.47;;;;;;;;;;4962980;28;20498;-89
2022/03/12 10:40:41;;;;;;;0.30;0.20;;;;;;;;;;4993760;28;20034;-90
2022/03/12 10:43:13;;;;;;;0.20;0.17;;;;;;;;;;4962409;28;20536;-89
2022/03/12 10:45:50;;;;;;;0.20;0.20;;;;;;;;;;4963936;28;20039;-91
2022/03/12 10:48:19;;;;;;;0.10;0.10;;;;;;;;;;5010629;28;20375;-89
2022/03/12 10:50:46;;;;;;;0.10;0.10;;;;;;;;;;4978039;28;20129;-94
2022/03/12 10:53:13;;;;;;;0.10;0.10;;;;;;;;;;4978350;28;20569;-90
2022/03/12 10:55:50;;;;;;;0.10;0.10;;;;;;;;;;4977921;28;20237;-90
2022/03/12 10:58:16;;;;;;;0.10;0.10;;;;;;;;;;4979356;28;20050;-91
2022/03/12 11:00:46;;;;;;;0.10;0.10;;;;;;;;;;5011127;28;20406;-93
2022/03/12 11:03:14;;;;;;;0.10;0.10;;;;;;;;;;4981787;28;20117;-88
2022/03/12 11:05:42;;;;;;;0.10;0.10;;;;;;;;;;4981520;28;20041;-89
2022/03/12 11:08:09;;;;;;;0.10;0.10;;;;;;;;;;4982038;28;20041;-89
2022/03/12 11:10:37;;;;;;;0.10;0.10;;;;;;;;;;4997230;28;20140;-89
2022/03/12 11:13:04;;;;;;;0.10;0.10;;;;;;;;;;5013821;28;20343;-89
2022/03/12 11:15:32;;;;;;;0.10;0.10;;;;;;;;;;4980858;28;20088;-88
2022/03/12 11:17:58;;;;;;;0.10;0.10;;;;;;;;;;4981182;28;20038;-89
2022/03/12 11:20:24;;;;;;;0.10;0.10;;;;;;;;;;5013410;28;20042;-88
2022/03/12 11:22:52;;;;;;;0.20;0.20;;;;;;;;;;5012871;28;20046;-88
2022/03/12 11:25:22;;;;;;;0.10;0.10;;;;;;;;;;4997233;28;20084;-88
2022/03/12 11:27:50;;;;;;;0.10;0.10;;;;;;;;;;4980838;28;20092;-88
2022/03/12 11:30:22;;;;;;;0.10;0.10;;;;;;;;;;4997289;28;20049;-88
2022/03/12 11:32:52;;;;;;;0.30;0.30;;;;;;;;;;5013308;28;20049;-88
2022/03/12 11:35:22;;;;;;;0.10;0.10;;;;;;;;;;4996986;28;20057;-88
2022/03/12 11:37:49;;;;;;;0.10;0.10;;;;;;;;;;4981417;28;20045;-91
2022/03/12 11:40:19;;;;;;;0.10;0.10;;;;;;;;;;4977847;28;20065;-90
2022/03/12 11:42:45;;;;;;;0.10;0.10;;;;;;;;;;4993898;28;20042;-90
2022/03/12 11:45:14;;;;;;;0.10;0.10;;;;;;;;;;4993688;28;20169;-90
2022/03/12 11:47:41;;;;;;;0.10;0.10;;;;;;;;;;4962365;28;20390;-90
2022/03/12 11:50:12;;;;;;;0.20;0.20;;;;;;;;;;4977874;28;20058;-90
2022/03/12 11:52:38;;;;;;;0.10;0.10;;;;;;;;;;4977260;28;20046;-90
2022/03/12 11:55:05;;;;;;;0.10;0.10;;;;;;;;;;4961737;28;20049;-90
2022/03/12 11:57:32;;;;;;;0.10;0.10;;;;;;;;;;4977784;28;20046;-90
2022/03/12 11:59:58;;;;;;;0.22;0.22;;;;;;;;;;4961020;28;20046;-92
2022/03/12 12:02:25;;;;;;;0.10;0.10;;;;;;;;;;4977687;28;20046;-91
2022/03/12 12:04:52;;;;;;;0.10;0.10;;;;;;;;;;4977590;28;20038;-90
2022/03/12 12:07:18;;;;;;;0.10;0.10;;;;;;;;;;4978752;28;20158;-91
2022/03/12 12:09:44;;;;;;;0.10;0.10;;;;;;;;;;4961552;28;20494;-90
2022/03/12 12:12:13;;;;;;;0.10;0.10;;;;;;;;;;4993884;28;20117;-90
2022/03/12 12:14:39;;;;;;;0.10;0.10;;;;;;;;;;4961860;28;20046;-90
2022/03/12 12:17:06;;;;;;;0.10;0.10;;;;;;;;;;4961209;28;20050;-91
2022/03/12 12:19:34;;;;;;;0.10;0.10;;;;;;;;;;4961860;28;20393;-91
2022/03/12 12:22:00;;;;;;;0.10;0.10;;;;;;;;;;4977399;28;20100;-92
2022/03/12 12:24:27;;;;;;;1.00;0.40;;;;;;;;;;4977523;28;20034;-90
2022/03/12 12:26:58;;;;;;;0.10;0.10;;;;;;;;;;4961336;28;20042;-91
2022/03/12 12:29:47;;;;;;;0.10;0.10;;;;;;;;;;4977243;28;20050;-92
2022/03/12 12:32:14;;;;;;;0.10;0.10;;;;;;;;;;4983598;28;20054;-88
2022/03/12 12:34:59;;;;;;;0.10;0.10;;;;;;;;;;4977043;28;20045;-91
2022/03/12 12:37:44;;;;;;;0.10;0.10;;;;;;;;;;4993564;28;20046;-91
2022/03/12 12:40:21;;;;;;;0.10;0.10;;;;;;;;;;4992858;28;20042;-89
2022/03/12 12:42:48;;;;;;;0.10;0.10;;;;;;;;;;4977167;28;20375;-89
2022/03/12 12:45:15;;;;;;;0.10;0.10;;;;;;;;;;4977061;28;20123;-90
2022/03/12 12:47:41;;;;;;;0.30;0.30;;;;;;;;;;4961054;28;20125;-92
2022/03/12 12:50:17;;;;;;;0.10;0.10;;;;;;;;;;4978897;28;20055;-92
2022/03/12 12:53:03;;;;;;;0.10;0.10;;;;;;;;;;4977064;28;20090;-92
2022/03/12 12:55:33;;;;;;;0.10;0.10;;;;;;;;;;4993166;28;20109;-92
2022/03/12 12:57:59;;;;;;;0.20;0.20;;;;;;;;;;4977221;28;20074;-93
2022/03/12 13:00:30;;;;;;;0.10;0.10;;;;;;;;;;4978139;28;20054;-93
2022/03/12 13:02:57;;;;;;;0.10;0.10;;;;;;;;;;4992703;28;20046;-95
2022/03/12 13:05:42;;;;;;;0.10;0.10;;;;;;;;;;4977293;28;20045;-94
2022/03/12 13:08:08;;;;;;;0.10;0.10;;;;;;;;;;4977464;28;20390;-94
2022/03/12 13:10:34;;;;;;;0.40;0.40;;;;;;;;;;4961509;28;20038;-94
2022/03/12 13:13:09;;;;;;;0.10;0.10;;;;;;;;;;4993353;28;20053;-95
2022/03/12 13:15:39;;;;;;;0.10;0.10;;;;;;;;;;4977429;28;20038;-95
2022/03/12 13:18:14;;;;;;;0.10;0.10;;;;;;;;;;4961146;28;20089;-94
2022/03/12 13:20:44;;;;;;;0.10;0.10;;;;;;;;;;4961237;28;20126;-94
2022/03/12 13:23:10;;;;;;;0.10;0.10;;;;;;;;;;4961411;28;20034;-96
2022/03/12 13:25:50;;;;;;;0.10;0.10;;;;;;;;;;4960640;28;20039;-96
2022/03/12 13:28:35;;;;;;;0.60;0.60;;;;;;;;;;4960832;28;20482;-94
2022/03/12 13:31:05;;;;;;;0.10;0.10;;;;;;;;;;4977740;28;20102;-92
2022/03/12 13:33:31;;;;;;;0.10;0.10;;;;;;;;;;4961186;28;20046;-93
2022/03/12 13:35:57;;;;;;;0.10;0.10;;;;;;;;;;4960775;28;20045;-94
2022/03/12 13:38:23;;;;;;;0.10;0.10;;;;;;;;;;4960103;28;20054;-90
2022/03/12 13:40:52;;;;;;;0.10;0.10;;;;;;;;;;4961188;28;20038;-94
2022/03/12 13:43:18;;;;;;;0.10;0.10;;;;;;;;;;4960844;28;20488;-90
2022/03/12 13:45:46;;;;;;;0.10;0.10;;;;;;;;;;4976431;28;20042;-93
2022/03/12 13:48:12;;;;;;;0.10;0.10;;;;;;;;;;4961130;28;20085;-92
2022/03/12 13:50:38;;;;;;;0.10;0.10;;;;;;;;;;4976406;28;20470;-91
2022/03/12 13:53:04;;;;;;;0.10;0.10;;;;;;;;;;4995988;28;20045;-94
2022/03/12 13:55:30;;;;;;;0.10;0.10;;;;;;;;;;4979830;28;20045;-92
2022/03/12 13:58:00;;;;;;;0.10;0.10;;;;;;;;;;4976107;28;20069;-92
2022/03/12 14:00:26;;;;;;;0.10;0.10;;;;;;;;;;4975400;28;20047;-91
2022/03/12 14:02:53;;;;;;;0.10;0.10;;;;;;;;;;4976176;28;20039;-90
2022/03/12 14:05:28;;;;;;;0.20;0.20;;;;;;;;;;4962889;28;20474;-91
2022/03/12 14:07:58;;;;;;;0.10;0.10;;;;;;;;;;4987283;28;20042;-94
2022/03/12 14:10:24;;;;;;;0.20;0.20;;;;;;;;;;4970037;28;20038;-92
2022/03/12 14:12:58;;;;;;;0.10;0.10;;;;;;;;;;4970685;28;20548;-94
2022/03/12 14:15:25;;;;;;;0.10;0.10;;;;;;;;;;4963618;28;20425;-93
2022/03/12 14:17:53;;;;;;;0.10;0.10;;;;;;;;;;4980093;28;20050;-93
2022/03/12 14:20:19;;;;;;;0.10;0.10;;;;;;;;;;4964087;28;20133;-92
2022/03/12 14:22:46;;;;;;;0.10;0.10;;;;;;;;;;4963720;28;20471;-92
2022/03/12 14:25:12;;;;;;;0.10;0.10;;;;;;;;;;4979090;28;20057;-93
2022/03/12 14:27:40;;;;;;;0.10;0.10;;;;;;;;;;4966414;28;20034;-93
2022/03/12 14:30:11;;;;;;;0.10;0.10;;;;;;;;;;4977837;28;20513;-92
2022/03/12 14:32:37;;;;;;;0.10;0.10;;;;;;;;;;4973377;28;20053;-90
2022/03/12 14:35:03;;;;;;;0.10;0.10;;;;;;;;;;4961919;28;20096;-91
2022/03/12 14:37:29;;;;;;;0.20;0.20;;;;;;;;;;4980010;28;20138;-92
2022/03/12 14:39:55;;;;;;;0.10;0.10;;;;;;;;;;4993033;28;20102;-94
2022/03/12 14:42:22;;;;;;;0.20;0.20;;;;;;;;;;4963392;28;20053;-92
2022/03/12 14:44:51;;;;;;;0.10;0.10;;;;;;;;;;4980245;28;20046;-92